sensor_id;sensor_type;location;lat;lon;timestamp;pressure;altitude;pressure_sealevel;temperature;humidity
64683;BME280;51107;47.652;19.016;2024-02-14T00:01:04;100328.13;;;5.19;66.89
64683;BME280;51107;47.652;19.016;2024-02-14T00:03:37;100322.13;;;5.18;67.56
64683;BME280;51107;47.652;19.016;2024-02-14T00:06:06;100336.78;;;5.18;67.20
64683;BME280;51107;47.652;19.016;2024-02-14T00:08:34;100325.22;;;4.98;67.53
64683;BME280;51107;47.652;19.016;2024-02-14T00:11:03;100341.41;;;4.87;68.28
64683;BME280;51107;47.652;19.016;2024-02-14T00:13:31;100337.75;;;4.76;69.02
64683;BME280;51107;47.652;19.016;2024-02-14T00:16:02;100344.63;;;5.03;68.11
64683;BME280;51107;47.652;19.016;2024-02-14T00:18:30;100347.28;;;4.89;68.77
64683;BME280;51107;47.652;19.016;2024-02-14T00:20:59;100342.19;;;4.74;69.91
64683;BME280;51107;47.652;19.016;2024-02-14T00:23:27;100343.78;;;4.63;70.34
64683;BME280;51107;47.652;19.016;2024-02-14T00:25:55;100337.41;;;5.08;69.10
64683;BME280;51107;47.652;19.016;2024-02-14T00:28:23;100357.09;;;4.84;69.92
64683;BME280;51107;47.652;19.016;2024-02-14T00:30:55;100358.00;;;4.83;70.18
64683;BME280;51107;47.652;19.016;2024-02-14T00:33:23;100352.19;;;4.66;70.96
64683;BME280;51107;47.652;19.016;2024-02-14T00:35:51;100353.88;;;4.80;70.29
64683;BME280;51107;47.652;19.016;2024-02-14T00:38:20;100352.16;;;4.53;72.00
64683;BME280;51107;47.652;19.016;2024-02-14T00:40:47;100361.38;;;4.43;72.55
64683;BME280;51107;47.652;19.016;2024-02-14T00:43:15;100355.97;;;4.33;73.45
64683;BME280;51107;47.652;19.016;2024-02-14T00:45:44;100360.09;;;4.36;73.44
64683;BME280;51107;47.652;19.016;2024-02-14T00:48:12;100359.09;;;4.24;74.74
64683;BME280;51107;47.652;19.016;2024-02-14T00:50:40;100365.81;;;4.41;73.16
64683;BME280;51107;47.652;19.016;2024-02-14T00:53:08;100354.91;;;4.08;74.59
64683;BME280;51107;47.652;19.016;2024-02-14T00:55:36;100370.06;;;4.28;74.38
64683;BME280;51107;47.652;19.016;2024-02-14T00:58:04;100360.62;;;4.14;74.48
64683;BME280;51107;47.652;19.016;2024-02-14T01:00:32;100357.62;;;4.20;74.31
64683;BME280;51107;47.652;19.016;2024-02-14T01:03:03;100366.59;;;4.14;74.52
64683;BME280;51107;47.652;19.016;2024-02-14T01:05:32;100356.41;;;3.84;76.00
64683;BME280;51107;47.652;19.016;2024-02-14T01:08:00;100361.38;;;3.72;76.00
64683;BME280;51107;47.652;19.016;2024-02-14T01:10:28;100358.97;;;3.55;76.75
64683;BME280;51107;47.652;19.016;2024-02-14T01:12:56;100361.38;;;3.72;76.72
64683;BME280;51107;47.652;19.016;2024-02-14T01:15:24;100356.75;;;3.63;76.54
64683;BME280;51107;47.652;19.016;2024-02-14T01:17:52;100361.63;;;3.53;77.91
64683;BME280;51107;47.652;19.016;2024-02-14T01:20:21;100354.75;;;3.68;76.84
64683;BME280;51107;47.652;19.016;2024-02-14T01:22:49;100364.16;;;3.69;77.67
64683;BME280;51107;47.652;19.016;2024-02-14T01:25:17;100363.84;;;3.74;76.64
64683;BME280;51107;47.652;19.016;2024-02-14T01:27:45;100366.44;;;3.60;77.67
64683;BME280;51107;47.652;19.016;2024-02-14T01:30:13;100360.44;;;3.59;77.21
64683;BME280;51107;47.652;19.016;2024-02-14T01:32:42;100363.66;;;3.77;76.37
64683;BME280;51107;47.652;19.016;2024-02-14T01:35:11;100372.34;;;3.76;75.60
64683;BME280;51107;47.652;19.016;2024-02-14T01:37:39;100372.94;;;3.51;77.42
64683;BME280;51107;47.652;19.016;2024-02-14T01:40:07;100369.94;;;3.59;76.71
64683;BME280;51107;47.652;19.016;2024-02-14T01:42:35;100378.47;;;3.45;77.31
64683;BME280;51107;47.652;19.016;2024-02-14T01:45:04;100372.66;;;3.41;76.98
64683;BME280;51107;47.652;19.016;2024-02-14T01:47:32;100378.88;;;3.82;74.31
64683;BME280;51107;47.652;19.016;2024-02-14T01:50:01;100373.13;;;3.48;75.52
64683;BME280;51107;47.652;19.016;2024-02-14T01:52:29;100374.12;;;3.45;75.42
64683;BME280;51107;47.652;19.016;2024-02-14T01:54:58;100372.59;;;3.57;75.61
64683;BME280;51107;47.652;19.016;2024-02-14T01:57:27;100365.94;;;3.24;75.87
64683;BME280;51107;47.652;19.016;2024-02-14T01:59:56;100372.25;;;3.18;76.89
64683;BME280;51107;47.652;19.016;2024-02-14T02:02:26;100374.38;;;3.26;76.20
64683;BME280;51107;47.652;19.016;2024-02-14T02:04:55;100381.41;;;3.08;77.39
64683;BME280;51107;47.652;19.016;2024-02-14T02:07:23;100374.94;;;3.17;77.02
64683;BME280;51107;47.652;19.016;2024-02-14T02:09:51;100374.12;;;3.31;78.05
64683;BME280;51107;47.652;19.016;2024-02-14T02:12:20;100377.13;;;3.23;77.06
64683;BME280;51107;47.652;19.016;2024-02-14T02:14:48;100376.41;;;3.21;76.91
64683;BME280;51107;47.652;19.016;2024-02-14T02:17:16;100371.09;;;3.38;75.85
64683;BME280;51107;47.652;19.016;2024-02-14T02:19:45;100382.09;;;3.26;75.27
64683;BME280;51107;47.652;19.016;2024-02-14T02:22:14;100367.41;;;3.43;73.85
64683;BME280;51107;47.652;19.016;2024-02-14T02:24:42;100392.25;;;3.44;73.88
64683;BME280;51107;47.652;19.016;2024-02-14T02:27:10;100389.69;;;3.44;74.19
64683;BME280;51107;47.652;19.016;2024-02-14T02:29:38;100396.06;;;3.67;72.26
64683;BME280;51107;47.652;19.016;2024-02-14T02:32:06;100393.84;;;3.89;70.82
64683;BME280;51107;47.652;19.016;2024-02-14T02:34:37;100393.22;;;3.86;71.27
64683;BME280;51107;47.652;19.016;2024-02-14T02:37:08;100396.19;;;3.94;70.88
64683;BME280;51107;47.652;19.016;2024-02-14T02:39:37;100400.16;;;4.41;68.85
64683;BME280;51107;47.652;19.016;2024-02-14T02:42:05;100402.19;;;4.36;69.21
64683;BME280;51107;47.652;19.016;2024-02-14T02:44:33;100403.84;;;4.52;68.18
64683;BME280;51107;47.652;19.016;2024-02-14T02:47:01;100389.28;;;4.36;68.96
64683;BME280;51107;47.652;19.016;2024-02-14T02:49:29;100400.75;;;4.18;69.31
64683;BME280;51107;47.652;19.016;2024-02-14T02:51:57;100396.16;;;4.08;70.51
64683;BME280;51107;47.652;19.016;2024-02-14T02:54:26;100395.06;;;4.13;70.13
64683;BME280;51107;47.652;19.016;2024-02-14T02:56:54;100396.66;;;4.42;68.45
64683;BME280;51107;47.652;19.016;2024-02-14T02:59:22;100406.16;;;4.42;68.31
64683;BME280;51107;47.652;19.016;2024-02-14T03:01:50;100404.06;;;4.20;68.83
64683;BME280;51107;47.652;19.016;2024-02-14T03:04:18;100401.31;;;4.08;69.45
64683;BME280;51107;47.652;19.016;2024-02-14T03:06:47;100401.97;;;4.12;69.63
64683;BME280;51107;47.652;19.016;2024-02-14T03:09:16;100416.47;;;4.42;68.43
64683;BME280;51107;47.652;19.016;2024-02-14T03:11:46;100405.91;;;4.18;69.55
64683;BME280;51107;47.652;19.016;2024-02-14T03:14:15;100412.38;;;3.96;70.81
64683;BME280;51107;47.652;19.016;2024-02-14T03:16:44;100422.12;;;4.20;69.43
64683;BME280;51107;47.652;19.016;2024-02-14T03:19:12;100436.75;;;4.34;68.82
64683;BME280;51107;47.652;19.016;2024-02-14T03:21:40;100434.28;;;4.18;69.58
64683;BME280;51107;47.652;19.016;2024-02-14T03:24:08;100436.03;;;4.03;70.16
64683;BME280;51107;47.652;19.016;2024-02-14T03:26:38;100433.53;;;3.87;71.31
64683;BME280;51107;47.652;19.016;2024-02-14T03:29:06;100430.97;;;3.72;72.11
64683;BME280;51107;47.652;19.016;2024-02-14T03:31:34;100428.66;;;3.82;72.13
64683;BME280;51107;47.652;19.016;2024-02-14T03:34:04;100446.06;;;4.07;70.58
64683;BME280;51107;47.652;19.016;2024-02-14T03:36:33;100443.75;;;4.17;69.69
64683;BME280;51107;47.652;19.016;2024-02-14T03:39:01;100445.97;;;4.23;69.63
64683;BME280;51107;47.652;19.016;2024-02-14T03:41:32;100436.13;;;4.30;68.49
64683;BME280;51107;47.652;19.016;2024-02-14T03:44:00;100447.56;;;4.68;66.79
64683;BME280;51107;47.652;19.016;2024-02-14T03:46:31;100439.63;;;4.29;68.81
64683;BME280;51107;47.652;19.016;2024-02-14T03:49:02;100446.59;;;4.41;68.55
64683;BME280;51107;47.652;19.016;2024-02-14T03:51:30;100445.22;;;4.21;69.46
64683;BME280;51107;47.652;19.016;2024-02-14T03:53:58;100451.03;;;4.25;69.13
64683;BME280;51107;47.652;19.016;2024-02-14T03:56:26;100450.84;;;4.28;69.57
64683;BME280;51107;47.652;19.016;2024-02-14T03:58:55;100454.00;;;4.04;70.19
64683;BME280;51107;47.652;19.016;2024-02-14T04:01:23;100454.75;;;4.06;70.47
64683;BME280;51107;47.652;19.016;2024-02-14T04:03:51;100469.72;;;3.85;71.92
64683;BME280;51107;47.652;19.016;2024-02-14T04:06:20;100472.13;;;3.58;71.95
64683;BME280;51107;47.652;19.016;2024-02-14T04:08:48;100474.47;;;3.63;72.53
64683;BME280;51107;47.652;19.016;2024-02-14T04:11:17;100473.22;;;3.54;73.45
64683;BME280;51107;47.652;19.016;2024-02-14T04:13:45;100472.22;;;3.26;74.35
64683;BME280;51107;47.652;19.016;2024-02-14T04:16:13;100479.12;;;3.26;74.38
64683;BME280;51107;47.652;19.016;2024-02-14T04:18:42;100491.50;;;3.19;75.64
64683;BME280;51107;47.652;19.016;2024-02-14T04:21:10;100495.19;;;3.15;75.58
64683;BME280;51107;47.652;19.016;2024-02-14T04:23:39;100497.19;;;2.78;76.98
64683;BME280;51107;47.652;19.016;2024-02-14T04:26:08;100505.84;;;2.43;78.63
64683;BME280;51107;47.652;19.016;2024-02-14T04:28:38;100508.69;;;2.38;78.91
64683;BME280;51107;47.652;19.016;2024-02-14T04:31:08;100513.16;;;2.17;80.11
64683;BME280;51107;47.652;19.016;2024-02-14T04:33:37;100512.72;;;2.09;80.53
64683;BME280;51107;47.652;19.016;2024-02-14T04:36:06;100510.31;;;1.89;81.95
64683;BME280;51107;47.652;19.016;2024-02-14T04:38:34;100509.94;;;1.96;82.17
64683;BME280;51107;47.652;19.016;2024-02-14T04:41:03;100515.94;;;1.79;82.55
64683;BME280;51107;47.652;19.016;2024-02-14T04:43:31;100515.09;;;1.79;84.29
64683;BME280;51107;47.652;19.016;2024-02-14T04:45:59;100521.28;;;1.75;84.33
64683;BME280;51107;47.652;19.016;2024-02-14T04:48:27;100517.09;;;1.74;84.33
64683;BME280;51107;47.652;19.016;2024-02-14T04:50:55;100525.69;;;1.90;83.98
64683;BME280;51107;47.652;19.016;2024-02-14T04:53:24;100518.13;;;1.69;84.70
64683;BME280;51107;47.652;19.016;2024-02-14T04:55:53;100510.88;;;1.78;85.39
64683;BME280;51107;47.652;19.016;2024-02-14T04:58:21;100528.56;;;1.84;85.32
64683;BME280;51107;47.652;19.016;2024-02-14T05:00:49;100535.81;;;1.93;87.60
64683;BME280;51107;47.652;19.016;2024-02-14T05:03:18;100538.59;;;2.40;84.51
64683;BME280;51107;47.652;19.016;2024-02-14T05:05:46;100541.13;;;2.57;83.21
64683;BME280;51107;47.652;19.016;2024-02-14T05:08:14;100542.13;;;2.54;84.25
64683;BME280;51107;47.652;19.016;2024-02-14T05:10:43;100537.03;;;3.02;81.12
64683;BME280;51107;47.652;19.016;2024-02-14T05:13:11;100536.94;;;3.04;80.29
64683;BME280;51107;47.652;19.016;2024-02-14T05:15:42;100536.03;;;2.89;80.74
64683;BME280;51107;47.652;19.016;2024-02-14T05:18:10;100537.38;;;2.96;80.54
64683;BME280;51107;47.652;19.016;2024-02-14T05:20:38;100535.37;;;2.85;81.38
64683;BME280;51107;47.652;19.016;2024-02-14T05:23:06;100530.56;;;2.95;81.05
64683;BME280;51107;47.652;19.016;2024-02-14T05:25:35;100539.53;;;2.88;81.82
64683;BME280;51107;47.652;19.016;2024-02-14T05:28:03;100539.19;;;2.94;81.65
64683;BME280;51107;47.652;19.016;2024-02-14T05:30:32;100539.78;;;2.99;80.46
64683;BME280;51107;47.652;19.016;2024-02-14T05:33:00;100541.53;;;3.15;79.13
64683;BME280;51107;47.652;19.016;2024-02-14T05:35:29;100543.16;;;3.32;78.26
64683;BME280;51107;47.652;19.016;2024-02-14T05:37:58;100549.34;;;3.29;78.98
64683;BME280;51107;47.652;19.016;2024-02-14T05:40:26;100559.94;;;3.07;80.01
64683;BME280;51107;47.652;19.016;2024-02-14T05:42:54;100568.31;;;2.95;81.09
64683;BME280;51107;47.652;19.016;2024-02-14T05:45:24;100566.13;;;3.04;80.55
64683;BME280;51107;47.652;19.016;2024-02-14T05:47:52;100564.84;;;2.80;82.34
64683;BME280;51107;47.652;19.016;2024-02-14T05:50:21;100566.34;;;2.84;82.03
64683;BME280;51107;47.652;19.016;2024-02-14T05:52:49;100571.09;;;3.08;81.12
64683;BME280;51107;47.652;19.016;2024-02-14T05:55:17;100573.41;;;2.96;80.93
64683;BME280;51107;47.652;19.016;2024-02-14T05:57:45;100587.88;;;3.15;80.81
64683;BME280;51107;47.652;19.016;2024-02-14T06:00:14;100581.28;;;2.93;81.37
64683;BME280;51107;47.652;19.016;2024-02-14T06:02:43;100586.75;;;3.03;81.41
64683;BME280;51107;47.652;19.016;2024-02-14T06:05:12;100586.50;;;2.92;81.99
64683;BME280;51107;47.652;19.016;2024-02-14T06:07:41;100586.84;;;2.85;82.28
64683;BME280;51107;47.652;19.016;2024-02-14T06:10:09;100590.75;;;2.93;81.33
64683;BME280;51107;47.652;19.016;2024-02-14T06:12:37;100594.78;;;2.81;82.36
64683;BME280;51107;47.652;19.016;2024-02-14T06:15:08;100595.03;;;2.76;82.34
64683;BME280;51107;47.652;19.016;2024-02-14T06:17:37;100599.84;;;2.66;83.19
64683;BME280;51107;47.652;19.016;2024-02-14T06:20:06;100588.91;;;2.79;83.16
64683;BME280;51107;47.652;19.016;2024-02-14T06:22:35;100601.34;;;2.86;82.12
64683;BME280;51107;47.652;19.016;2024-02-14T06:25:14;100598.09;;;2.67;84.46
64683;BME280;51107;47.652;19.016;2024-02-14T06:27:44;100590.91;;;2.56;85.79
64683;BME280;51107;47.652;19.016;2024-02-14T06:30:12;100597.06;;;2.53;85.75
64683;BME280;51107;47.652;19.016;2024-02-14T06:32:41;100588.97;;;2.44;86.76
64683;BME280;51107;47.652;19.016;2024-02-14T06:35:09;100608.09;;;2.55;85.24
64683;BME280;51107;47.652;19.016;2024-02-14T06:37:37;100598.94;;;2.67;84.73
64683;BME280;51107;47.652;19.016;2024-02-14T06:40:21;100609.50;;;2.79;83.92
64683;BME280;51107;47.652;19.016;2024-02-14T06:42:49;100615.06;;;3.03;83.13
64683;BME280;51107;47.652;19.016;2024-02-14T06:45:22;100621.69;;;3.40;81.53
64683;BME280;51107;47.652;19.016;2024-02-14T06:47:50;100622.19;;;3.47;80.34
64683;BME280;51107;47.652;19.016;2024-02-14T06:50:19;100625.09;;;3.57;80.80
64683;BME280;51107;47.652;19.016;2024-02-14T06:52:47;100618.91;;;3.76;78.97
64683;BME280;51107;47.652;19.016;2024-02-14T06:55:15;100620.84;;;3.56;78.61
64683;BME280;51107;47.652;19.016;2024-02-14T06:57:43;100624.16;;;3.58;78.15
64683;BME280;51107;47.652;19.016;2024-02-14T07:00:12;100628.22;;;3.30;78.84
64683;BME280;51107;47.652;19.016;2024-02-14T07:02:40;100629.19;;;2.96;79.90
64683;BME280;51107;47.652;19.016;2024-02-14T07:05:08;100634.19;;;2.65;82.82
64683;BME280;51107;47.652;19.016;2024-02-14T07:07:41;100637.69;;;2.98;81.98
64683;BME280;51107;47.652;19.016;2024-02-14T07:10:09;100635.66;;;3.03;83.22
64683;BME280;51107;47.652;19.016;2024-02-14T07:12:38;100642.84;;;3.14;82.69
64683;BME280;51107;47.652;19.016;2024-02-14T07:15:06;100647.47;;;3.07;83.41
64683;BME280;51107;47.652;19.016;2024-02-14T07:17:36;100645.00;;;3.21;82.21
64683;BME280;51107;47.652;19.016;2024-02-14T07:20:05;100653.06;;;3.15;82.79
64683;BME280;51107;47.652;19.016;2024-02-14T07:22:34;100641.84;;;3.16;82.60
64683;BME280;51107;47.652;19.016;2024-02-14T07:25:02;100643.09;;;3.41;82.37
64683;BME280;51107;47.652;19.016;2024-02-14T07:27:32;100654.91;;;3.61;80.29
64683;BME280;51107;47.652;19.016;2024-02-14T07:30:01;100651.66;;;3.73;81.60
64683;BME280;51107;47.652;19.016;2024-02-14T07:32:29;100640.81;;;3.83;81.17
64683;BME280;51107;47.652;19.016;2024-02-14T07:34:57;100636.53;;;3.67;82.41
64683;BME280;51107;47.652;19.016;2024-02-14T07:37:25;100646.44;;;3.75;81.47
64683;BME280;51107;47.652;19.016;2024-02-14T07:39:53;100651.03;;;4.00;79.51
64683;BME280;51107;47.652;19.016;2024-02-14T07:42:22;100635.03;;;4.10;79.12
64683;BME280;51107;47.652;19.016;2024-02-14T07:44:50;100639.03;;;4.30;78.60
64683;BME280;51107;47.652;19.016;2024-02-14T07:47:18;100641.91;;;4.25;75.64
64683;BME280;51107;47.652;19.016;2024-02-14T07:49:47;100649.69;;;4.39;76.68
64683;BME280;51107;47.652;19.016;2024-02-14T07:52:15;100650.16;;;4.61;76.53
64683;BME280;51107;47.652;19.016;2024-02-14T07:54:43;100645.94;;;5.03;74.42
64683;BME280;51107;47.652;19.016;2024-02-14T07:57:11;100645.56;;;5.09;73.96
64683;BME280;51107;47.652;19.016;2024-02-14T07:59:39;100651.03;;;5.04;72.93
64683;BME280;51107;47.652;19.016;2024-02-14T08:02:07;100655.69;;;5.26;74.16
64683;BME280;51107;47.652;19.016;2024-02-14T08:04:36;100645.81;;;5.33;73.88
64683;BME280;51107;47.652;19.016;2024-02-14T08:07:04;100654.09;;;5.38;72.29
64683;BME280;51107;47.652;19.016;2024-02-14T08:09:32;100656.00;;;5.49;71.75
64683;BME280;51107;47.652;19.016;2024-02-14T08:12:01;100645.66;;;5.64;70.45
64683;BME280;51107;47.652;19.016;2024-02-14T08:14:29;100654.00;;;5.82;70.51
64683;BME280;51107;47.652;19.016;2024-02-14T08:16:58;100662.28;;;5.87;69.21
64683;BME280;51107;47.652;19.016;2024-02-14T08:19:27;100662.34;;;6.00;69.77
64683;BME280;51107;47.652;19.016;2024-02-14T08:21:55;100662.59;;;6.22;68.10
64683;BME280;51107;47.652;19.016;2024-02-14T08:24:26;100653.13;;;6.36;65.94
64683;BME280;51107;47.652;19.016;2024-02-14T08:26:55;100659.66;;;6.67;65.42
64683;BME280;51107;47.652;19.016;2024-02-14T08:29:23;100664.50;;;7.10;65.94
64683;BME280;51107;47.652;19.016;2024-02-14T08:31:51;100662.09;;;7.20;65.62
64683;BME280;51107;47.652;19.016;2024-02-14T08:34:19;100661.38;;;7.18;64.20
64683;BME280;51107;47.652;19.016;2024-02-14T08:36:48;100659.78;;;7.28;61.74
64683;BME280;51107;47.652;19.016;2024-02-14T08:39:16;100670.91;;;7.55;62.51
64683;BME280;51107;47.652;19.016;2024-02-14T08:41:44;100671.06;;;7.77;62.11
64683;BME280;51107;47.652;19.016;2024-02-14T08:44:15;100669.66;;;8.09;60.19
64683;BME280;51107;47.652;19.016;2024-02-14T08:46:44;100659.66;;;8.15;60.05
64683;BME280;51107;47.652;19.016;2024-02-14T08:49:16;100660.50;;;8.63;59.56
64683;BME280;51107;47.652;19.016;2024-02-14T08:51:44;100665.22;;;8.58;59.07
64683;BME280;51107;47.652;19.016;2024-02-14T08:54:14;100655.78;;;8.79;59.22
64683;BME280;51107;47.652;19.016;2024-02-14T08:56:44;100661.34;;;9.31;59.23
64683;BME280;51107;47.652;19.016;2024-02-14T08:59:12;100658.16;;;9.72;56.48
64683;BME280;51107;47.652;19.016;2024-02-14T09:01:41;100657.31;;;9.82;55.18
64683;BME280;51107;47.652;19.016;2024-02-14T09:04:09;100662.75;;;10.12;53.49
64683;BME280;51107;47.652;19.016;2024-02-14T09:06:37;100648.78;;;10.13;54.67
64683;BME280;51107;47.652;19.016;2024-02-14T09:09:07;100659.34;;;10.53;54.74
64683;BME280;51107;47.652;19.016;2024-02-14T09:11:38;100651.41;;;10.55;53.29
64683;BME280;51107;47.652;19.016;2024-02-14T09:14:09;100657.84;;;10.51;51.77
64683;BME280;51107;47.652;19.016;2024-02-14T09:16:38;100652.41;;;10.95;52.18
64683;BME280;51107;47.652;19.016;2024-02-14T09:19:06;100660.87;;;11.28;51.95
64683;BME280;51107;47.652;19.016;2024-02-14T09:21:36;100652.50;;;11.14;51.53
64683;BME280;51107;47.652;19.016;2024-02-14T09:24:05;100647.88;;;11.47;52.13
64683;BME280;51107;47.652;19.016;2024-02-14T09:26:33;100654.37;;;11.72;49.81
64683;BME280;51107;47.652;19.016;2024-02-14T09:29:01;100653.31;;;11.95;48.85
64683;BME280;51107;47.652;19.016;2024-02-14T09:31:29;100651.63;;;11.74;49.91
64683;BME280;51107;47.652;19.016;2024-02-14T09:33:57;100651.78;;;11.82;47.93
64683;BME280;51107;47.652;19.016;2024-02-14T09:36:26;100653.94;;;11.48;48.94
64683;BME280;51107;47.652;19.016;2024-02-14T09:38:55;100655.56;;;11.39;47.98
64683;BME280;51107;47.652;19.016;2024-02-14T09:41:31;100653.00;;;11.59;46.43
64683;BME280;51107;47.652;19.016;2024-02-14T09:44:04;100658.38;;;11.77;49.08
64683;BME280;51107;47.652;19.016;2024-02-14T09:46:35;100653.31;;;12.04;47.01
64683;BME280;51107;47.652;19.016;2024-02-14T09:49:05;100641.03;;;11.56;48.13
64683;BME280;51107;47.652;19.016;2024-02-14T09:51:34;100648.09;;;12.04;48.02
64683;BME280;51107;47.652;19.016;2024-02-14T09:54:04;100647.94;;;12.06;48.14
64683;BME280;51107;47.652;19.016;2024-02-14T09:56:32;100638.69;;;12.41;47.85
64683;BME280;51107;47.652;19.016;2024-02-14T09:59:02;100638.06;;;12.10;47.96
64683;BME280;51107;47.652;19.016;2024-02-14T10:01:31;100639.12;;;12.27;47.35
64683;BME280;51107;47.652;19.016;2024-02-14T10:03:59;100633.06;;;12.36;46.41
64683;BME280;51107;47.652;19.016;2024-02-14T10:06:27;100630.91;;;12.12;46.26
64683;BME280;51107;47.652;19.016;2024-02-14T10:08:55;100635.56;;;12.75;44.69
64683;BME280;51107;47.652;19.016;2024-02-14T10:11:31;100627.41;;;13.16;44.23
64683;BME280;51107;47.652;19.016;2024-02-14T10:14:01;100625.34;;;12.44;43.77
64683;BME280;51107;47.652;19.016;2024-02-14T10:16:32;100616.47;;;12.65;44.34
64683;BME280;51107;47.652;19.016;2024-02-14T10:19:01;100611.91;;;12.67;43.62
64683;BME280;51107;47.652;19.016;2024-02-14T10:21:32;100606.00;;;12.17;42.06
64683;BME280;51107;47.652;19.016;2024-02-14T10:24:01;100599.63;;;12.49;43.71
64683;BME280;51107;47.652;19.016;2024-02-14T10:26:29;100606.87;;;12.08;46.18
64683;BME280;51107;47.652;19.016;2024-02-14T10:28:59;100620.47;;;12.69;44.30
64683;BME280;51107;47.652;19.016;2024-02-14T10:31:27;100614.19;;;12.42;46.77
64683;BME280;51107;47.652;19.016;2024-02-14T10:33:55;100616.87;;;11.83;45.67
64683;BME280;51107;47.652;19.016;2024-02-14T10:36:27;100613.53;;;12.40;42.59
64683;BME280;51107;47.652;19.016;2024-02-14T10:38:56;100619.47;;;12.70;41.23
64683;BME280;51107;47.652;19.016;2024-02-14T10:41:26;100612.72;;;12.77;41.50
64683;BME280;51107;47.652;19.016;2024-02-14T10:43:55;100607.22;;;12.33;42.61
64683;BME280;51107;47.652;19.016;2024-02-14T10:46:23;100609.66;;;12.82;41.23
64683;BME280;51107;47.652;19.016;2024-02-14T10:48:58;100604.62;;;12.33;41.58
64683;BME280;51107;47.652;19.016;2024-02-14T10:51:33;100605.63;;;12.60;42.52
64683;BME280;51107;47.652;19.016;2024-02-14T10:54:04;100607.19;;;12.43;41.87
64683;BME280;51107;47.652;19.016;2024-02-14T10:56:35;100598.66;;;12.78;41.20
64683;BME280;51107;47.652;19.016;2024-02-14T10:59:08;100593.84;;;12.46;41.28
64683;BME280;51107;47.652;19.016;2024-02-14T11:01:38;100597.88;;;12.30;42.25
64683;BME280;51107;47.652;19.016;2024-02-14T11:04:07;100593.03;;;12.35;40.85
64683;BME280;51107;47.652;19.016;2024-02-14T11:06:48;100591.88;;;12.10;42.42
64683;BME280;51107;47.652;19.016;2024-02-14T11:09:17;100585.34;;;12.34;41.35
64683;BME280;51107;47.652;19.016;2024-02-14T11:11:46;100587.22;;;12.51;41.26
64683;BME280;51107;47.652;19.016;2024-02-14T11:14:20;100577.16;;;12.09;41.49
64683;BME280;51107;47.652;19.016;2024-02-14T11:16:52;100574.66;;;12.17;41.72
64683;BME280;51107;47.652;19.016;2024-02-14T11:19:33;100575.94;;;11.84;42.71
64683;BME280;51107;47.652;19.016;2024-02-14T11:22:11;100584.16;;;12.56;41.56
64683;BME280;51107;47.652;19.016;2024-02-14T11:24:41;100582.09;;;11.93;41.75
64683;BME280;51107;47.652;19.016;2024-02-14T11:27:10;100575.66;;;12.16;42.62
64683;BME280;51107;47.652;19.016;2024-02-14T11:29:59;100577.13;;;12.29;41.73
64683;BME280;51107;47.652;19.016;2024-02-14T11:32:28;100580.34;;;11.73;42.55
64683;BME280;51107;47.652;19.016;2024-02-14T11:34:57;100572.63;;;12.11;41.45
64683;BME280;51107;47.652;19.016;2024-02-14T11:37:30;100572.50;;;11.93;42.12
64683;BME280;51107;47.652;19.016;2024-02-14T11:40:00;100570.28;;;11.98;43.35
64683;BME280;51107;47.652;19.016;2024-02-14T11:42:29;100568.94;;;11.94;42.29
64683;BME280;51107;47.652;19.016;2024-02-14T11:44:58;100571.69;;;11.63;42.35
64683;BME280;51107;47.652;19.016;2024-02-14T11:47:26;100561.81;;;11.67;43.12
64683;BME280;51107;47.652;19.016;2024-02-14T11:49:56;100558.09;;;11.69;43.58
64683;BME280;51107;47.652;19.016;2024-02-14T11:52:26;100565.91;;;11.60;43.62
64683;BME280;51107;47.652;19.016;2024-02-14T11:54:55;100553.41;;;11.44;43.90
64683;BME280;51107;47.652;19.016;2024-02-14T11:57:25;100567.28;;;11.73;43.05
64683;BME280;51107;47.652;19.016;2024-02-14T11:59:55;100560.28;;;11.64;40.75
64683;BME280;51107;47.652;19.016;2024-02-14T12:02:26;100554.66;;;11.39;40.81
64683;BME280;51107;47.652;19.016;2024-02-14T12:04:54;100548.19;;;11.24;42.00
64683;BME280;51107;47.652;19.016;2024-02-14T12:07:24;100551.78;;;10.73;43.53
64683;BME280;51107;47.652;19.016;2024-02-14T12:09:55;100564.66;;;11.15;42.79
64683;BME280;51107;47.652;19.016;2024-02-14T12:12:23;100549.41;;;11.10;44.51
64683;BME280;51107;47.652;19.016;2024-02-14T12:14:52;100551.75;;;11.13;42.92
64683;BME280;51107;47.652;19.016;2024-02-14T12:17:23;100549.97;;;11.33;41.14
64683;BME280;51107;47.652;19.016;2024-02-14T12:19:51;100550.13;;;10.71;42.71
64683;BME280;51107;47.652;19.016;2024-02-14T12:22:21;100560.66;;;11.20;42.36
64683;BME280;51107;47.652;19.016;2024-02-14T12:24:49;100549.13;;;11.13;42.97
64683;BME280;51107;47.652;19.016;2024-02-14T12:27:18;100554.50;;;11.12;45.01
64683;BME280;51107;47.652;19.016;2024-02-14T12:29:47;100561.34;;;11.22;46.18
64683;BME280;51107;47.652;19.016;2024-02-14T12:32:16;100557.78;;;11.14;44.67
64683;BME280;51107;47.652;19.016;2024-02-14T12:34:45;100550.88;;;10.93;45.72
64683;BME280;51107;47.652;19.016;2024-02-14T12:37:14;100547.34;;;11.04;46.35
64683;BME280;51107;47.652;19.016;2024-02-14T12:39:42;100549.81;;;10.55;47.75
64683;BME280;51107;47.652;19.016;2024-02-14T12:42:11;100544.22;;;10.69;48.05
64683;BME280;51107;47.652;19.016;2024-02-14T12:44:39;100548.66;;;10.48;46.37
64683;BME280;51107;47.652;19.016;2024-02-14T12:47:07;100544.72;;;10.53;47.81
64683;BME280;51107;47.652;19.016;2024-02-14T12:49:36;100548.34;;;10.72;47.74
64683;BME280;51107;47.652;19.016;2024-02-14T12:52:05;100548.16;;;10.54;47.30
64683;BME280;51107;47.652;19.016;2024-02-14T12:54:33;100537.50;;;10.15;47.99
64683;BME280;51107;47.652;19.016;2024-02-14T12:57:02;100537.50;;;10.15;49.13